createdAt,value
2022-10-22T00:02:07.548Z,20.47
2022-10-22T00:04:37.886Z,18.33
2022-10-22T00:07:06.887Z,21.27
2022-10-22T00:09:35.865Z,17.07
2022-10-22T00:12:05.249Z,20.40
2022-10-22T00:14:34.218Z,19.73
2022-10-22T00:17:04.216Z,18.77
2022-10-22T00:19:37.211Z,21.40
2022-10-22T00:22:06.260Z,18.67
2022-10-22T00:24:36.287Z,17.57
2022-10-22T00:27:05.615Z,16.20
2022-10-22T00:29:34.595Z,22.05
2022-10-22T00:32:03.787Z,20.02
2022-10-22T00:34:32.764Z,18.57
2022-10-22T00:37:03.158Z,17.87
2022-10-22T00:39:32.310Z,19.53
2022-10-22T00:42:01.498Z,24.07
2022-10-22T00:45:04.790Z,18.63
2022-10-22T00:47:36.301Z,22.23
2022-10-22T00:50:08.697Z,20.97
2022-10-22T00:52:39.809Z,24.17
2022-10-22T00:55:09.712Z,17.67
2022-10-22T00:57:38.910Z,19.70
2022-10-22T01:00:09.427Z,16.17
2022-10-22T01:02:38.628Z,23.13
2022-10-22T01:05:08.896Z,31.10
2022-10-22T01:07:44.293Z,21.67
2022-10-22T01:10:27.593Z,16.33
2022-10-22T01:13:08.219Z,19.65
2022-10-22T01:15:44.522Z,20.70
2022-10-22T01:18:22.251Z,18.70
2022-10-22T01:21:08.478Z,28.83
2022-10-22T01:24:10.771Z,22.13
2022-10-22T01:27:04.348Z,22.33
2022-10-22T01:29:39.605Z,20.03
2022-10-22T01:32:13.678Z,22.50
2022-10-22T01:34:45.557Z,16.45
2022-10-22T01:37:16.607Z,21.52
2022-10-22T01:39:48.608Z,30.50
2022-10-22T01:42:17.714Z,22.90
2022-10-22T01:44:48.778Z,20.95
2022-10-22T01:47:27.006Z,20.97
2022-10-22T01:50:32.236Z,17.90
2022-10-22T01:53:18.662Z,24.23
2022-10-22T01:55:58.186Z,22.45
2022-10-22T01:58:39.219Z,25.43
2022-10-22T02:01:19.570Z,24.13
2022-10-22T02:03:57.298Z,24.90
2022-10-22T02:06:28.211Z,24.87
2022-10-22T02:08:58.798Z,23.10
2022-10-22T02:11:28.432Z,24.17
2022-10-22T02:14:01.153Z,27.70
2022-10-22T02:16:35.992Z,25.87
2022-10-22T02:19:11.430Z,23.53
2022-10-22T02:21:40.513Z,27.30
2022-10-22T02:24:09.787Z,33.20
2022-10-22T02:26:46.806Z,26.40
2022-10-22T02:29:21.460Z,27.60
2022-10-22T02:31:57.006Z,25.33
2022-10-22T02:34:29.291Z,27.57
2022-10-22T02:37:00.424Z,25.17
2022-10-22T02:39:30.660Z,25.30
2022-10-22T02:41:59.791Z,22.97
2022-10-22T02:44:28.726Z,34.13
2022-10-22T02:47:00.102Z,34.77
2022-10-22T02:49:29.263Z,30.17
2022-10-22T02:51:58.553Z,24.77
2022-10-22T02:54:27.579Z,187.03
2022-10-22T02:56:56.551Z,35.10
2022-10-22T02:59:25.717Z,36.77
2022-10-22T03:01:54.774Z,20.73
2022-10-22T03:04:25.384Z,30.27
2022-10-22T03:06:54.356Z,32.30
2022-10-22T03:09:24.908Z,24.27
2022-10-22T03:11:54.438Z,38.27
2022-10-22T03:14:24.033Z,35.37
2022-10-22T03:16:53.028Z,51.73
2022-10-22T03:19:21.970Z,21.27
2022-10-22T03:21:57.388Z,19.10
2022-10-22T03:24:30.881Z,19.13
2022-10-22T03:27:00.015Z,39.57
2022-10-22T03:29:30.196Z,18.43
2022-10-22T03:31:59.207Z,23.33
2022-10-22T03:34:28.160Z,15.37
2022-10-22T03:37:00.500Z,16.17
2022-10-22T03:39:33.126Z,21.77
2022-10-22T03:42:03.064Z,28.73
2022-10-22T03:44:32.795Z,18.23
2022-10-22T03:47:02.802Z,30.10
2022-10-22T03:49:31.982Z,89.00
2022-10-22T03:52:07.498Z,152.80
2022-10-22T03:57:07.929Z,52.33
2022-10-22T03:59:37.458Z,67.23
2022-10-22T04:02:07.046Z,42.20
2022-10-22T04:04:36.257Z,31.10
2022-10-22T04:07:07.216Z,65.50
2022-10-22T04:09:36.566Z,22.73
2022-10-22T04:12:06.479Z,27.07
2022-10-22T04:14:35.831Z,33.80
2022-10-22T04:17:05.136Z,56.60
2022-10-22T04:19:34.097Z,37.87
2022-10-22T04:22:03.295Z,251.07
2022-10-22T04:24:33.837Z,120.43
2022-10-22T04:27:02.803Z,127.17
2022-10-22T04:29:31.754Z,154.20
2022-10-22T04:32:00.789Z,169.40
2022-10-22T04:34:30.495Z,236.27
2022-10-22T04:36:59.574Z,155.27
2022-10-22T04:39:28.586Z,164.30
2022-10-22T04:41:58.903Z,83.27
2022-10-22T04:44:27.920Z,59.87
2022-10-22T04:46:57.139Z,163.80
2022-10-22T04:49:26.321Z,114.53
2022-10-22T04:51:55.332Z,83.40
2022-10-22T04:54:26.759Z,64.30
2022-10-22T04:57:00.726Z,75.77
2022-10-22T04:59:29.672Z,93.53
2022-10-22T05:01:58.722Z,76.93
2022-10-22T05:04:27.717Z,59.77
2022-10-22T05:06:57.166Z,67.37
2022-10-22T05:09:26.233Z,80.30
2022-10-22T05:11:55.401Z,45.40
2022-10-22T05:14:27.305Z,61.73
2022-10-22T05:16:56.817Z,63.97
2022-10-22T05:19:28.076Z,51.50
2022-10-22T05:21:58.781Z,46.60
2022-10-22T05:24:28.875Z,32.97
2022-10-22T05:27:00.400Z,87.23
2022-10-22T05:29:30.954Z,85.37
2022-10-22T05:31:59.948Z,108.93
2022-10-22T05:34:28.913Z,56.10
2022-10-22T05:36:58.038Z,24.77
2022-10-22T05:39:27.189Z,99.37
2022-10-22T05:41:56.197Z,44.07
2022-10-22T05:44:25.220Z,60.97
2022-10-22T05:46:55.966Z,37.00
2022-10-22T05:49:24.961Z,65.80
2022-10-22T05:51:53.920Z,47.40
2022-10-22T05:54:23.163Z,49.87
2022-10-22T05:56:52.130Z,18.53
2022-10-22T05:59:21.135Z,32.90
2022-10-22T06:01:50.192Z,16.60
2022-10-22T06:04:20.489Z,58.50
2022-10-22T06:06:51.906Z,53.53
2022-10-22T06:09:25.898Z,35.10
2022-10-22T06:11:55.153Z,42.60
2022-10-22T06:14:24.754Z,48.70
2022-10-22T06:16:54.242Z,45.57
2022-10-22T06:19:26.741Z,19.23
2022-10-22T06:21:56.102Z,30.37
2022-10-22T06:24:25.401Z,15.40
2022-10-22T06:26:54.655Z,25.03
2022-10-22T06:29:23.842Z,47.00
2022-10-22T06:31:52.878Z,36.97
2022-10-22T06:34:23.214Z,43.90
2022-10-22T06:36:52.129Z,55.60
2022-10-22T06:39:21.082Z,31.93
2022-10-22T06:42:00.032Z,41.00
2022-10-22T06:44:32.255Z,50.63
2022-10-22T06:47:02.186Z,60.87
2022-10-22T06:49:32.543Z,19.13
2022-10-22T06:52:01.618Z,31.77
2022-10-22T06:54:30.615Z,84.90
2022-10-22T06:56:59.597Z,38.70
2022-10-22T06:59:28.573Z,66.00
2022-10-22T07:01:57.855Z,82.20
2022-10-22T07:04:26.921Z,54.73
2022-10-22T07:06:57.911Z,95.87
2022-10-22T07:09:26.947Z,122.33
2022-10-22T07:11:55.878Z,95.83
2022-10-22T07:14:25.110Z,15.27
2022-10-22T07:16:54.101Z,43.27
2022-10-22T07:19:23.018Z,85.47
2022-10-22T07:21:52.146Z,30.43
2022-10-22T07:24:22.416Z,43.33
2022-10-22T07:26:51.474Z,56.00
2022-10-22T07:29:20.535Z,74.87
2022-10-22T07:31:49.545Z,31.10
2022-10-22T07:36:52.357Z,52.27
2022-10-22T07:39:22.716Z,95.00
2022-10-22T07:41:51.662Z,30.27
2022-10-22T07:44:20.586Z,18.00
2022-10-22T07:46:49.541Z,105.50
2022-10-22T07:49:18.701Z,80.83
2022-10-22T07:51:47.662Z,85.83
2022-10-22T07:54:16.775Z,53.27
2022-10-22T07:56:47.076Z,44.90
2022-10-22T07:59:16.061Z,144.90
2022-10-22T08:01:46.838Z,134.00
2022-10-22T08:04:17.020Z,62.20
2022-10-22T08:06:47.382Z,31.40
2022-10-22T08:09:16.986Z,22.80
2022-10-22T08:11:47.543Z,17.90
2022-10-22T08:14:17.081Z,39.67
2022-10-22T08:16:46.345Z,57.27
2022-10-22T08:19:18.748Z,39.70
2022-10-22T08:21:48.451Z,36.40
2022-10-22T08:24:18.995Z,16.63
2022-10-22T08:26:49.253Z,23.47
2022-10-22T08:29:18.260Z,21.93
2022-10-22T08:31:47.195Z,18.87
2022-10-22T08:34:16.135Z,22.93
2022-10-22T08:36:45.070Z,18.53
2022-10-22T08:39:14.110Z,21.77
2022-10-22T08:41:55.350Z,21.20
2022-10-22T08:44:51.982Z,19.80
2022-10-22T08:47:42.485Z,22.07
2022-10-22T08:50:13.317Z,21.53
2022-10-22T08:52:43.572Z,31.00
2022-10-22T08:55:15.795Z,29.07
2022-10-22T08:57:53.159Z,26.63
2022-10-22T09:00:26.331Z,22.37
2022-10-22T09:03:07.859Z,23.87
2022-10-22T09:05:49.245Z,22.88
2022-10-22T09:08:20.374Z,26.73
2022-10-22T09:10:52.066Z,28.33
2022-10-22T09:13:24.039Z,29.63
2022-10-22T09:15:56.496Z,22.65
2022-10-22T09:18:37.431Z,31.92
2022-10-22T09:21:21.346Z,18.98
2022-10-22T09:23:59.851Z,23.10
2022-10-22T09:26:28.832Z,16.42
2022-10-22T09:29:02.024Z,18.30
2022-10-22T09:31:33.684Z,20.70
2022-10-22T09:34:07.366Z,17.58
2022-10-22T09:36:38.810Z,20.20
2022-10-22T09:39:23.764Z,19.58
2022-10-22T09:41:52.874Z,20.27
2022-10-22T09:44:23.333Z,17.58
2022-10-22T09:46:52.489Z,15.48
2022-10-22T09:49:24.612Z,24.75
2022-10-22T09:51:56.693Z,21.20
2022-10-22T09:54:27.881Z,18.58
2022-10-22T09:56:59.039Z,22.77
2022-10-22T09:59:34.266Z,25.70
2022-10-22T10:02:20.366Z,18.80
2022-10-22T10:04:58.604Z,17.60
2022-10-22T10:07:31.487Z,20.48
2022-10-22T10:10:00.705Z,16.73
2022-10-22T10:12:40.009Z,14.88
2022-10-22T10:15:21.302Z,18.80
2022-10-22T10:17:59.632Z,18.38
2022-10-22T10:20:36.695Z,15.43
2022-10-22T10:23:15.124Z,16.75
2022-10-22T10:25:49.544Z,9.88
2022-10-22T10:28:31.238Z,13.10
2022-10-22T10:31:10.947Z,8.32
2022-10-22T10:33:48.001Z,15.57
2022-10-22T10:36:26.128Z,6.40
2022-10-22T10:39:00.972Z,7.75
2022-10-22T10:41:39.792Z,14.55
2022-10-22T10:44:40.421Z,11.20
2022-10-22T10:47:29.590Z,11.93
2022-10-22T10:50:15.027Z,8.77
2022-10-22T10:52:48.957Z,8.00
2022-10-22T10:55:24.406Z,8.93
2022-10-22T10:58:05.766Z,6.63
2022-10-22T11:00:41.945Z,5.97
2022-10-22T11:03:55.831Z,6.97
2022-10-22T11:06:28.248Z,5.65
2022-10-22T11:09:00.853Z,8.05
2022-10-22T11:11:37.421Z,10.05
2022-10-22T11:14:14.454Z,11.32
2022-10-22T11:16:47.759Z,13.95
2022-10-22T11:19:46.055Z,4.63
2022-10-22T11:22:26.586Z,6.05
2022-10-22T11:25:01.683Z,8.57
2022-10-22T11:27:37.433Z,5.20
2022-10-22T11:30:13.604Z,7.53
2022-10-22T11:32:45.397Z,5.70
2022-10-22T11:35:21.155Z,7.43
2022-10-22T11:37:57.129Z,8.15
2022-10-22T11:40:36.870Z,9.07
2022-10-22T11:43:07.612Z,6.65
2022-10-22T11:45:38.069Z,7.00
2022-10-22T11:48:17.025Z,8.50
2022-10-22T11:50:53.209Z,7.57
2022-10-22T11:53:31.642Z,9.68
2022-10-22T11:56:22.118Z,10.00
2022-10-22T11:58:53.959Z,8.38
2022-10-22T12:01:30.327Z,6.60
2022-10-22T12:04:18.973Z,8.35
2022-10-22T12:07:06.219Z,10.45
2022-10-22T12:09:45.794Z,7.20
2022-10-22T12:12:24.177Z,5.82
2022-10-22T12:14:55.845Z,6.63
2022-10-22T12:17:26.374Z,5.70
2022-10-22T12:20:02.767Z,5.18
2022-10-22T12:22:37.080Z,4.32
2022-10-22T12:25:19.874Z,5.28
2022-10-22T12:27:53.338Z,3.35
2022-10-22T12:30:24.527Z,7.68
2022-10-22T12:32:54.836Z,3.75
2022-10-22T12:35:27.146Z,9.15
2022-10-22T12:37:58.151Z,8.43
2022-10-22T12:40:30.148Z,6.32
2022-10-22T12:43:01.170Z,9.50
2022-10-22T12:45:32.737Z,7.35
2022-10-22T12:48:04.034Z,6.82
2022-10-22T12:50:38.125Z,6.03
2022-10-22T12:53:07.941Z,6.28
2022-10-22T12:55:39.258Z,3.17
2022-10-22T12:58:09.044Z,8.07
2022-10-22T13:00:38.215Z,8.25
2022-10-22T13:03:08.296Z,6.25
2022-10-22T13:05:39.792Z,4.85
2022-10-22T13:08:11.959Z,5.18
2022-10-22T13:10:50.082Z,8.02
2022-10-22T13:13:42.345Z,4.32
2022-10-22T13:16:16.667Z,7.40
2022-10-22T13:18:46.788Z,7.32
2022-10-22T13:21:30.877Z,8.68
2022-10-22T13:24:01.629Z,4.65
2022-10-22T13:26:37.256Z,6.07
2022-10-22T13:29:14.611Z,3.83
2022-10-22T13:31:49.238Z,2.95
2022-10-22T13:34:20.870Z,4.80
2022-10-22T13:36:50.643Z,3.53
2022-10-22T13:39:20.853Z,14.15
2022-10-22T13:41:51.683Z,11.57
2022-10-22T13:44:20.998Z,6.30
2022-10-22T13:46:50.425Z,5.80
2022-10-22T13:49:23.265Z,13.88
2022-10-22T13:51:52.891Z,4.53
2022-10-22T13:54:25.681Z,5.57
2022-10-22T13:56:55.984Z,8.20
2022-10-22T13:59:24.899Z,5.72
2022-10-22T14:01:55.746Z,4.60
2022-10-22T14:04:24.851Z,8.57
2022-10-22T14:06:53.855Z,8.35
2022-10-22T14:09:22.947Z,8.02
2022-10-22T14:11:51.970Z,6.03
2022-10-22T14:14:22.208Z,10.13
2022-10-22T14:16:51.261Z,12.35
2022-10-22T14:19:20.355Z,5.57
2022-10-22T14:21:49.661Z,8.23
2022-10-22T14:24:18.634Z,8.02
2022-10-22T14:26:47.550Z,6.90
2022-10-22T14:29:16.858Z,10.88
2022-10-22T14:31:47.119Z,7.22
2022-10-22T14:34:17.412Z,4.60
2022-10-22T14:36:46.360Z,5.70
2022-10-22T14:39:15.350Z,5.88
2022-10-22T14:41:44.667Z,12.00
2022-10-22T14:44:14.868Z,8.95
2022-10-22T14:46:44.421Z,8.07
2022-10-22T14:49:14.924Z,11.75
2022-10-22T14:51:43.924Z,7.60
2022-10-22T14:54:12.832Z,10.48
2022-10-22T14:56:41.960Z,9.77
2022-10-22T14:59:11.235Z,8.55
2022-10-22T15:01:41.973Z,6.82
2022-10-22T15:04:11.395Z,7.18
2022-10-22T15:06:41.680Z,6.07
2022-10-22T15:09:10.709Z,4.43
2022-10-22T15:11:39.752Z,5.85
2022-10-22T15:14:09.174Z,7.18
2022-10-22T15:16:38.088Z,8.15
2022-10-22T15:19:07.237Z,6.65
2022-10-22T15:21:36.215Z,6.95
2022-10-22T15:24:07.336Z,11.85
2022-10-22T15:26:36.355Z,5.90
2022-10-22T15:29:05.831Z,10.13
2022-10-22T15:31:47.809Z,6.95
2022-10-22T15:34:23.314Z,8.00
2022-10-22T15:36:54.502Z,6.70
2022-10-22T15:39:25.292Z,9.40
2022-10-22T15:41:54.993Z,10.75
2022-10-22T15:44:26.013Z,6.38
2022-10-22T15:46:55.788Z,6.07
2022-10-22T15:49:25.958Z,11.75
2022-10-22T15:51:55.335Z,9.88
2022-10-22T15:54:28.678Z,6.70
2022-10-22T15:56:57.908Z,6.53
2022-10-22T15:59:27.003Z,5.47
2022-10-22T16:01:55.950Z,6.18
2022-10-22T16:04:24.867Z,6.32
2022-10-22T16:06:54.736Z,8.20
2022-10-22T16:09:26.953Z,5.78
2022-10-22T16:11:56.820Z,13.38
2022-10-22T16:14:25.825Z,9.77
2022-10-22T16:16:57.027Z,9.15
2022-10-22T16:19:26.628Z,6.15
2022-10-22T16:21:56.880Z,5.85
2022-10-22T16:24:27.204Z,9.50
2022-10-22T16:26:56.140Z,5.07
2022-10-22T16:29:25.060Z,8.68
2022-10-22T16:31:53.990Z,7.80
2022-10-22T16:34:22.929Z,6.15
2022-10-22T16:36:53.553Z,7.03
2022-10-22T16:39:22.669Z,5.30
2022-10-22T16:41:52.985Z,8.85
2022-10-22T16:44:21.959Z,3.78
2022-10-22T16:46:50.910Z,4.15
2022-10-22T16:49:19.837Z,5.25
2022-10-22T16:51:48.794Z,3.85
2022-10-22T16:54:17.830Z,6.20
2022-10-22T16:56:46.969Z,8.75
2022-10-22T16:59:17.400Z,8.45
2022-10-22T17:01:46.400Z,4.30
2022-10-22T17:04:17.199Z,6.25
2022-10-22T17:06:46.136Z,8.52
2022-10-22T17:09:15.309Z,5.85
2022-10-22T17:11:45.010Z,11.38
2022-10-22T17:14:14.086Z,6.63
2022-10-22T17:16:44.831Z,10.65
2022-10-22T17:19:15.822Z,6.82
2022-10-22T17:21:45.080Z,8.93
2022-10-22T17:24:14.300Z,11.55
2022-10-22T17:26:44.742Z,4.65
2022-10-22T17:29:14.487Z,8.07
2022-10-22T17:31:44.796Z,10.95
2022-10-22T17:34:17.587Z,6.57
2022-10-22T17:36:46.762Z,4.05
2022-10-22T17:39:19.405Z,6.32
2022-10-22T17:41:48.354Z,8.88
2022-10-22T17:44:17.899Z,12.40
2022-10-22T17:46:49.567Z,5.55
2022-10-22T17:49:20.722Z,12.48
2022-10-22T17:51:49.861Z,9.70
2022-10-22T17:54:19.134Z,8.50
2022-10-22T17:56:48.057Z,8.85
2022-10-22T17:59:19.037Z,13.95
2022-10-22T18:01:49.390Z,9.60
2022-10-22T18:04:20.538Z,7.60
2022-10-22T18:06:49.877Z,7.00
2022-10-22T18:09:19.953Z,10.25
2022-10-22T18:11:49.619Z,9.40
2022-10-22T18:14:19.706Z,13.83
2022-10-22T18:16:50.459Z,11.60
2022-10-22T18:19:22.363Z,8.77
2022-10-22T18:21:51.352Z,13.23
2022-10-22T18:24:20.277Z,12.90
2022-10-22T18:26:49.511Z,15.63
2022-10-22T18:29:20.684Z,10.77
2022-10-22T18:31:52.391Z,15.00
2022-10-22T18:34:23.807Z,12.17
2022-10-22T18:36:53.157Z,9.97
2022-10-22T18:39:22.118Z,15.33
2022-10-22T18:41:51.259Z,17.13
2022-10-22T18:44:20.185Z,17.13
2022-10-22T18:46:50.455Z,10.53
2022-10-22T18:49:20.875Z,21.38
2022-10-22T18:51:52.786Z,15.63
2022-10-22T18:54:23.618Z,13.13
2022-10-22T18:56:53.410Z,17.65
2022-10-22T18:59:24.739Z,15.07
2022-10-22T19:01:57.503Z,15.87
2022-10-22T19:04:30.862Z,16.13
2022-10-22T19:06:59.889Z,11.10
2022-10-22T19:09:28.851Z,11.43
2022-10-22T19:11:58.328Z,18.00
2022-10-22T19:14:27.528Z,13.00
2022-10-22T19:16:57.788Z,17.17
2022-10-22T19:19:26.968Z,13.57
2022-10-22T19:21:59.387Z,11.13
2022-10-22T19:24:29.110Z,21.00
2022-10-22T19:26:58.106Z,11.90
2022-10-22T19:29:27.109Z,11.40
2022-10-22T19:31:57.484Z,21.07
2022-10-22T19:34:26.540Z,13.90
2022-10-22T19:36:55.464Z,15.37
2022-10-22T19:39:24.426Z,22.97
2022-10-22T19:41:53.437Z,13.87
2022-10-22T19:44:22.353Z,20.87
2022-10-22T19:46:51.279Z,20.37
2022-10-22T19:49:22.975Z,21.37
2022-10-22T19:51:52.211Z,20.90
2022-10-22T19:54:21.291Z,18.63
2022-10-22T19:56:51.100Z,14.63
2022-10-22T19:59:22.645Z,25.83
2022-10-22T20:01:51.713Z,25.13
2022-10-22T20:04:25.020Z,18.20
2022-10-22T20:06:56.172Z,18.43
2022-10-22T20:09:25.381Z,18.33
2022-10-22T20:11:54.544Z,13.63
2022-10-22T20:14:23.458Z,21.63
2022-10-22T20:16:52.519Z,12.50
2022-10-22T20:19:25.991Z,18.33
2022-10-22T20:21:55.082Z,14.60
2022-10-22T20:24:24.252Z,27.07
2022-10-22T20:26:53.263Z,16.00
2022-10-22T20:29:22.357Z,15.00
2022-10-22T20:31:51.332Z,15.47
2022-10-22T20:34:20.370Z,14.80
2022-10-22T20:36:50.641Z,12.80
2022-10-22T20:39:20.042Z,14.93
2022-10-22T20:41:51.605Z,27.67
2022-10-22T20:44:20.710Z,24.47
2022-10-22T20:46:50.153Z,17.27
2022-10-22T20:49:20.621Z,20.73
2022-10-22T20:51:51.019Z,15.53
2022-10-22T20:54:20.426Z,13.27
2022-10-22T20:56:49.377Z,18.03
2022-10-22T20:59:18.453Z,19.37
2022-10-22T21:01:49.677Z,23.67
2022-10-22T21:04:19.928Z,10.93
2022-10-22T21:06:53.606Z,12.80
2022-10-22T21:09:22.948Z,16.77
2022-10-22T21:14:28.473Z,14.03
2022-10-22T21:16:57.476Z,18.90
2022-10-22T21:19:26.998Z,15.60
2022-10-22T21:21:57.541Z,20.30
2022-10-22T21:24:26.695Z,21.47
2022-10-22T21:26:56.246Z,16.47
2022-10-22T21:29:25.200Z,11.53
2022-10-22T21:31:54.555Z,18.73
2022-10-22T21:34:23.534Z,17.20
2022-10-22T21:36:52.807Z,35.33
2022-10-22T21:39:23.172Z,14.77
2022-10-22T21:41:52.715Z,18.43
2022-10-22T21:44:21.643Z,16.43
2022-10-22T21:46:50.670Z,18.57
2022-10-22T21:49:19.998Z,21.70
2022-10-22T21:51:49.280Z,17.10
2022-10-22T21:54:18.412Z,20.73
2022-10-22T21:56:48.968Z,26.07
2022-10-22T21:59:17.895Z,12.47
2022-10-22T22:01:46.994Z,14.50
2022-10-22T22:04:16.016Z,13.60
2022-10-22T22:06:45.014Z,19.17
2022-10-22T22:09:14.179Z,16.47
2022-10-22T22:11:43.408Z,20.90
2022-10-22T22:14:14.874Z,15.13
2022-10-22T22:16:44.109Z,21.20
2022-10-22T22:19:13.472Z,15.83
2022-10-22T22:21:45.266Z,18.63
2022-10-22T22:24:15.189Z,14.73
2022-10-22T22:26:44.211Z,18.63
2022-10-22T22:29:14.670Z,16.43
2022-10-22T22:31:43.695Z,21.17
2022-10-22T22:34:15.410Z,15.47
2022-10-22T22:36:46.389Z,22.33
2022-10-22T22:39:17.259Z,17.23
2022-10-22T22:41:47.329Z,18.70
2022-10-22T22:44:17.823Z,31.33
2022-10-22T22:46:46.822Z,21.70
2022-10-22T22:49:16.126Z,15.77
2022-10-22T22:51:45.410Z,18.37
2022-10-22T22:54:14.399Z,16.67
2022-10-22T22:56:43.392Z,23.07
2022-10-22T22:59:12.926Z,17.97
2022-10-22T23:01:45.292Z,17.13
2022-10-22T23:04:19.041Z,20.13
2022-10-22T23:06:48.086Z,14.80
2022-10-22T23:09:17.983Z,26.77
2022-10-22T23:11:48.185Z,19.57
2022-10-22T23:14:19.191Z,22.07
2022-10-22T23:16:51.858Z,24.73
2022-10-22T23:19:22.204Z,17.23
2022-10-22T23:21:52.771Z,18.50
2022-10-22T23:24:24.037Z,20.57
2022-10-22T23:26:54.508Z,24.73
2022-10-22T23:29:26.039Z,21.90
2022-10-22T23:31:59.542Z,17.30
2022-10-22T23:34:29.869Z,16.23
2022-10-22T23:36:59.224Z,22.63
2022-10-22T23:39:29.750Z,27.43
2022-10-22T23:41:59.102Z,24.70
2022-10-22T23:44:28.250Z,17.53
2022-10-22T23:46:58.519Z,25.70
2022-10-22T23:49:27.544Z,17.80
2022-10-22T23:51:56.433Z,18.30
2022-10-22T23:54:25.419Z,21.80
2022-10-22T23:56:54.370Z,18.47
2022-10-22T23:59:23.284Z,23.27
